Thurles, Ireland
Current Conditions -  °F | °C
As of 9:00 PM on Sunday 25 Jan 2015 (Local Time) from EIWF Reporting Station
Broken Clouds Broken Clouds  
Wind Chill:   Ceiling: 400
Heat Index:   Visibility: 6mi
Dew Point:   Wind: 10mph
Humidity: 100%   Direction: 250°WSW
Pressure: 30.24"   Gusts: NA
Location:  52.68°N, 7.48°W
Report Text: EIWF 252000Z 25009KT 200V290 9999 BKN004 09/09 Q1024 R21/1/////
Loading
Personal Weather Stations






























Interactive Weather Map New forecast layout! Learn more

10-Day Weather Forecast

Advertisements
Track Severe Weather on mobile